Colchester, Connecticut
Current Conditions -  °F | °C
As of 10:52 PM on Wednesday 17 Dec 2014 (Local Time) from KIJD Reporting Station
Scattered Clouds Scattered Clouds  
Wind Chill: 32°   Ceiling: Unl
Heat Index: 39°   Visibility: 10mi
Dew Point: 29°   Wind: 10mph
Humidity: 67%   Direction: 300°WNW
Pressure: 29.8"   Gusts: NA
Location:  41.58°N, 72.33°W
Report Text: KIJD 180352Z AUTO 30009KT 10SM SCT095 04/M02 A2980 RMK AO2 SLP092 T00391017
Loading
Personal Weather Stations






























Interactive Weather Map New forecast layout! Learn more

10-Day Weather Forecast

Advertisements
Track Severe Weather on mobile